createdAt,value
2023-05-12T00:00:31.788Z,1252.00
2023-05-12T00:01:31.817Z,1222.00
2023-05-12T00:02:31.905Z,1246.00
2023-05-12T00:03:32.056Z,1263.00
2023-05-12T00:04:31.937Z,1240.00
2023-05-12T00:05:31.884Z,1232.00
2023-05-12T00:06:31.911Z,1253.00
2023-05-12T00:07:31.923Z,1253.00
2023-05-12T00:08:31.945Z,1231.00
2023-05-12T00:09:31.967Z,1243.00
2023-05-12T00:10:31.986Z,1226.00
2023-05-12T00:11:31.998Z,1210.00
2023-05-12T00:12:32.023Z,1212.00
2023-05-12T00:13:32.069Z,1226.00
2023-05-12T00:14:32.060Z,1214.00
2023-05-12T00:15:32.105Z,1220.00
2023-05-12T00:16:32.153Z,1248.00
2023-05-12T00:17:32.157Z,1228.00
2023-05-12T00:18:32.185Z,1233.00
2023-05-12T00:19:32.175Z,1232.00
2023-05-12T00:20:32.185Z,1226.00
2023-05-12T00:21:32.217Z,1188.00
2023-05-12T00:22:32.238Z,1216.00
2023-05-12T00:23:32.258Z,1240.00
2023-05-12T00:24:32.288Z,1226.00
2023-05-12T00:25:32.312Z,1210.00
2023-05-12T00:26:32.341Z,1198.00
2023-05-12T00:27:32.377Z,1183.00
2023-05-12T00:28:32.394Z,1250.00
2023-05-12T00:29:32.425Z,1215.00
2023-05-12T00:30:32.438Z,1217.00
2023-05-12T00:31:32.491Z,1186.00
2023-05-12T00:32:32.501Z,1199.00
2023-05-12T00:33:32.500Z,1221.00
2023-05-12T00:34:32.541Z,1213.00
2023-05-12T00:35:32.591Z,1227.00
2023-05-12T00:36:32.562Z,1221.00
2023-05-12T00:37:32.582Z,1220.00
2023-05-12T00:38:32.620Z,1202.00
2023-05-12T00:39:32.629Z,1233.00
2023-05-12T00:40:32.697Z,1222.00
2023-05-12T00:41:32.689Z,1223.00
2023-05-12T00:42:32.714Z,1192.00
2023-05-12T00:43:32.726Z,1239.00
2023-05-12T00:44:32.756Z,1214.00
2023-05-12T00:45:32.812Z,1209.00
2023-05-12T00:46:32.798Z,1222.00
2023-05-12T00:47:32.816Z,1186.00
2023-05-12T00:48:32.825Z,1220.00
2023-05-12T00:49:32.842Z,1191.00
2023-05-12T00:50:32.876Z,1164.00
2023-05-12T00:51:32.907Z,1173.00
2023-05-12T00:52:32.912Z,1210.00
2023-05-12T00:53:45.133Z,1219.00
2023-05-12T00:54:33.932Z,1219.00
2023-05-12T00:55:32.918Z,1216.00
2023-05-12T00:56:32.914Z,1207.00
2023-05-12T00:57:32.913Z,1178.00
2023-05-12T00:58:32.918Z,1181.00
2023-05-12T00:59:32.893Z,1179.00
2023-05-12T01:00:32.881Z,1180.00
2023-05-12T01:01:32.902Z,1176.00
2023-05-12T01:02:32.927Z,1199.00
2023-05-12T01:03:33.028Z,1215.00
2023-05-12T01:04:32.860Z,1196.00
2023-05-12T01:05:32.850Z,1190.00
2023-05-12T01:06:32.858Z,1165.00
2023-05-12T01:07:32.839Z,1195.00
2023-05-12T01:08:32.823Z,1201.00
2023-05-12T01:09:32.824Z,1187.00
2023-05-12T01:10:32.810Z,1195.00
2023-05-12T01:11:32.811Z,1178.00
2023-05-12T01:12:32.805Z,1182.00
2023-05-12T01:13:32.835Z,1181.00
2023-05-12T01:14:32.845Z,1144.00
2023-05-12T01:15:32.877Z,1188.00
2023-05-12T01:16:32.920Z,1161.00
2023-05-12T01:17:33.040Z,1205.00
2023-05-12T01:18:33.114Z,1185.00
2023-05-12T01:19:32.991Z,1175.00
2023-05-12T01:20:33.020Z,1183.00
2023-05-12T01:21:33.080Z,1176.00
2023-05-12T01:22:33.106Z,1134.00
2023-05-12T01:23:33.119Z,1173.00
2023-05-12T01:24:33.148Z,1171.00
2023-05-12T01:25:33.164Z,1197.00
2023-05-12T01:26:33.202Z,1163.00
2023-05-12T01:27:33.245Z,1181.00
2023-05-12T01:28:33.264Z,1160.00
2023-05-12T01:29:33.279Z,1144.00
2023-05-12T01:30:33.376Z,1155.00
2023-05-12T01:31:33.408Z,1159.00
2023-05-12T01:32:33.386Z,1162.00
2023-05-12T01:33:33.403Z,1174.00
2023-05-12T01:34:33.413Z,1150.00
2023-05-12T01:35:33.448Z,1154.00
2023-05-12T01:36:33.481Z,1175.00
2023-05-12T01:37:33.516Z,1127.00
2023-05-12T01:38:33.533Z,1131.00
2023-05-12T01:39:33.551Z,1159.00
2023-05-12T01:40:33.584Z,1153.00
2023-05-12T01:41:33.611Z,1166.00
2023-05-12T01:42:33.646Z,1163.00
2023-05-12T01:43:33.656Z,1174.00
2023-05-12T01:44:33.691Z,1134.00
2023-05-12T01:45:33.719Z,1153.00
2023-05-12T01:46:33.776Z,1145.00
2023-05-12T01:47:33.802Z,1108.00
2023-05-12T01:48:33.801Z,1178.00
2023-05-12T01:49:33.837Z,1131.00
2023-05-12T01:50:33.876Z,1131.00
2023-05-12T01:51:33.905Z,1115.00
2023-05-12T01:52:33.919Z,1126.00
2023-05-12T01:53:33.950Z,1125.00
2023-05-12T01:54:34.000Z,1142.00
2023-05-12T01:55:34.013Z,1140.00
2023-05-12T01:56:34.050Z,1142.00
2023-05-12T01:57:34.083Z,1142.00
2023-05-12T01:58:34.222Z,1110.00
2023-05-12T01:59:34.156Z,1109.00
2023-05-12T02:00:34.160Z,1148.00
2023-05-12T02:01:34.271Z,1128.00
2023-05-12T02:02:34.290Z,1140.00
2023-05-12T02:03:34.338Z,1116.00
2023-05-12T02:04:34.268Z,1121.00
2023-05-12T02:05:34.305Z,1113.00
2023-05-12T02:06:34.340Z,1092.00
2023-05-12T02:07:34.377Z,1128.00
2023-05-12T02:08:34.415Z,1089.00
2023-05-12T02:09:34.443Z,1088.00
2023-05-12T02:10:34.464Z,1101.00
2023-05-12T02:11:34.513Z,1087.00
2023-05-12T02:12:34.561Z,1070.00
2023-05-12T02:13:34.569Z,1091.00
2023-05-12T02:14:34.611Z,1090.00
2023-05-12T02:15:34.639Z,1055.00
2023-05-12T02:16:34.700Z,1093.00
2023-05-12T02:17:34.769Z,1046.00
2023-05-12T02:18:34.776Z,1068.00
2023-05-12T02:19:34.806Z,1084.00
2023-05-12T02:20:34.809Z,1097.00
2023-05-12T02:21:34.858Z,1095.00
2023-05-12T02:22:34.883Z,1111.00
2023-05-12T02:23:34.919Z,1113.00
2023-05-12T02:24:34.941Z,1116.00
2023-05-12T02:25:34.994Z,1106.00
2023-05-12T02:26:35.019Z,1070.00
2023-05-12T02:27:35.072Z,1073.00
2023-05-12T02:28:35.121Z,1093.00
2023-05-12T02:29:35.128Z,1081.00
2023-05-12T02:30:35.168Z,1096.00
2023-05-12T02:31:35.262Z,1091.00
2023-05-12T02:32:35.315Z,1090.00
2023-05-12T02:33:35.271Z,1053.00
2023-05-12T02:34:35.315Z,1080.00
2023-05-12T02:35:35.349Z,1089.00
2023-05-12T02:36:35.412Z,1036.00
2023-05-12T02:37:35.425Z,1064.00
2023-05-12T02:38:35.473Z,1085.00
2023-05-12T02:39:35.519Z,1077.00
2023-05-12T02:40:35.549Z,1082.00
2023-05-12T02:41:35.588Z,1088.00
2023-05-12T02:42:35.805Z,1094.00
2023-05-12T02:43:35.682Z,1075.00
2023-05-12T02:44:35.716Z,1050.00
2023-05-12T02:45:35.803Z,1036.00
2023-05-12T02:46:35.796Z,1051.00
2023-05-12T02:47:35.877Z,1074.00
2023-05-12T02:48:35.860Z,1073.00
2023-05-12T02:49:35.913Z,1082.00
2023-05-12T02:50:35.971Z,1090.00
2023-05-12T02:51:35.973Z,1109.00
2023-05-12T02:52:36.014Z,1080.00
2023-05-12T02:53:36.054Z,1089.00
2023-05-12T02:54:36.078Z,1076.00
2023-05-12T02:55:36.127Z,1063.00
2023-05-12T02:56:36.156Z,1075.00
2023-05-12T02:57:36.187Z,1083.00
2023-05-12T02:58:36.229Z,1083.00
2023-05-12T02:59:36.266Z,1110.00
2023-05-12T03:00:36.320Z,1082.00
2023-05-12T03:01:36.353Z,1089.00
2023-05-12T03:02:36.608Z,1078.00
2023-05-12T03:03:36.510Z,1080.00
2023-05-12T03:04:36.457Z,1089.00
2023-05-12T03:05:36.483Z,1098.00
2023-05-12T03:06:36.537Z,1077.00
2023-05-12T03:07:36.565Z,1072.00
2023-05-12T03:08:36.589Z,1054.00
2023-05-12T03:09:36.648Z,1072.00
2023-05-12T03:10:36.666Z,1094.00
2023-05-12T03:11:36.734Z,1066.00
2023-05-12T03:12:36.739Z,1094.00
2023-05-12T03:13:36.772Z,1058.00
2023-05-12T03:14:36.827Z,1058.00
2023-05-12T03:15:36.883Z,1066.00
2023-05-12T03:16:36.934Z,1059.00
2023-05-12T03:17:36.993Z,1056.00
2023-05-12T03:18:37.043Z,1065.00
2023-05-12T03:19:37.044Z,1052.00
2023-05-12T03:20:37.085Z,1062.00
2023-05-12T03:21:37.139Z,1052.00
2023-05-12T03:22:37.178Z,1063.00
2023-05-12T03:23:37.221Z,1048.00
2023-05-12T03:24:37.260Z,1088.00
2023-05-12T03:25:37.302Z,1093.00
2023-05-12T03:26:37.353Z,1070.00
2023-05-12T03:27:37.381Z,1080.00
2023-05-12T03:28:37.435Z,1041.00
2023-05-12T03:29:37.465Z,1075.00
2023-05-12T03:30:37.511Z,1064.00
2023-05-12T03:31:37.575Z,1047.00
2023-05-12T03:32:37.668Z,1080.00
2023-05-12T03:33:37.634Z,1080.00
2023-05-12T03:34:37.685Z,1058.00
2023-05-12T03:35:37.720Z,1069.00
2023-05-12T03:36:37.747Z,1066.00
2023-05-12T03:37:37.783Z,1085.00
2023-05-12T03:38:37.946Z,1071.00
2023-05-12T03:39:37.868Z,1068.00
2023-05-12T03:40:37.930Z,1029.00
2023-05-12T03:41:37.976Z,1072.00
2023-05-12T03:42:37.989Z,1074.00
2023-05-12T03:43:38.027Z,1063.00
2023-05-12T03:44:38.072Z,1042.00
2023-05-12T03:45:38.107Z,1070.00
2023-05-12T03:46:38.313Z,1062.00
2023-05-12T03:47:38.272Z,1022.00
2023-05-12T03:48:38.265Z,1048.00
2023-05-12T03:49:38.288Z,1029.00
2023-05-12T03:50:38.331Z,1077.00
2023-05-12T03:51:38.380Z,1066.00
2023-05-12T03:52:38.552Z,1052.00
2023-05-12T03:53:38.455Z,1054.00
2023-05-12T03:54:38.494Z,1065.00
2023-05-12T03:55:38.536Z,1086.00
2023-05-12T03:56:38.587Z,1045.00
2023-05-12T03:57:38.706Z,1057.00
2023-05-12T03:58:38.749Z,1040.00
2023-05-12T03:59:38.747Z,1032.00
2023-05-12T04:00:39.045Z,1055.00
2023-05-12T04:01:38.943Z,1074.00
2023-05-12T04:02:38.984Z,1023.00
2023-05-12T04:03:38.978Z,1048.00
2023-05-12T04:04:38.918Z,1052.00
2023-05-12T04:05:38.956Z,1064.00
2023-05-12T04:06:38.999Z,1063.00
2023-05-12T04:07:39.048Z,1007.00
2023-05-12T04:08:41.723Z,1055.00
2023-05-12T04:09:39.084Z,1048.00
2023-05-12T04:10:39.064Z,1071.00
2023-05-12T04:11:39.067Z,1064.00
2023-05-12T04:12:39.066Z,1059.00
2023-05-12T04:13:39.057Z,1033.00
2023-05-12T04:14:43.099Z,1054.00
2023-05-12T04:15:39.034Z,1056.00
2023-05-12T04:16:39.052Z,1057.00
2023-05-12T04:17:39.045Z,1051.00
2023-05-12T04:18:39.039Z,1040.00
2023-05-12T04:19:39.013Z,1041.00
2023-05-12T04:20:39.005Z,1033.00
2023-05-12T04:21:38.993Z,1009.00
2023-05-12T04:22:38.980Z,1036.00
2023-05-12T04:23:39.027Z,1016.00
2023-05-12T04:24:39.043Z,1018.00
2023-05-12T04:25:38.978Z,1038.00
2023-05-12T04:26:38.988Z,1025.00
2023-05-12T04:27:38.962Z,1035.00
2023-05-12T04:28:38.954Z,1039.00
2023-05-12T04:29:38.946Z,1027.00
2023-05-12T04:30:38.946Z,1038.00
2023-05-12T04:31:39.015Z,1010.00
2023-05-12T04:32:38.956Z,1026.00
2023-05-12T04:33:38.983Z,1000.00
2023-05-12T04:34:38.919Z,1030.00
2023-05-12T04:35:39.048Z,995.00
2023-05-12T04:36:39.038Z,1003.00
2023-05-12T04:37:39.051Z,986.00
2023-05-12T04:38:39.072Z,974.00
2023-05-12T04:39:39.129Z,977.00
2023-05-12T04:40:39.183Z,978.00
2023-05-12T04:41:39.229Z,1010.00
2023-05-12T04:42:39.379Z,984.00
2023-05-12T04:44:39.327Z,998.00
2023-05-12T04:45:39.321Z,1020.00
2023-05-12T04:46:39.365Z,1008.00
2023-05-12T04:47:39.335Z,1012.00
2023-05-12T04:48:39.290Z,1023.00
2023-05-12T04:49:39.288Z,1018.00
2023-05-12T04:50:39.282Z,1020.00
2023-05-12T04:51:39.276Z,1028.00
2023-05-12T04:52:39.282Z,1038.00
2023-05-12T04:53:39.265Z,1026.00
2023-05-12T04:54:39.273Z,1015.00
2023-05-12T04:55:39.250Z,1000.00
2023-05-12T04:56:39.245Z,992.00
2023-05-12T04:57:39.240Z,987.00
2023-05-12T04:58:39.290Z,980.00
2023-05-12T04:59:41.216Z,1008.00
2023-05-12T05:00:39.209Z,1006.00
2023-05-12T05:01:39.298Z,971.00
2023-05-12T05:02:39.412Z,957.00
2023-05-12T05:03:39.365Z,990.00
2023-05-12T05:04:39.312Z,1007.00
2023-05-12T05:05:39.351Z,1009.00
2023-05-12T05:06:39.387Z,969.00
2023-05-12T05:07:39.462Z,1007.00
2023-05-12T05:08:39.476Z,982.00
2023-05-12T05:09:39.524Z,1006.00
2023-05-12T05:10:39.547Z,995.00
2023-05-12T05:11:39.597Z,1012.00
2023-05-12T05:12:39.627Z,1007.00
2023-05-12T05:13:39.657Z,987.00
2023-05-12T05:14:39.745Z,967.00
2023-05-12T05:15:39.746Z,989.00
2023-05-12T05:16:39.748Z,998.00
2023-05-12T05:17:39.809Z,980.00
2023-05-12T05:18:39.807Z,998.00
2023-05-12T05:19:52.810Z,986.00
2023-05-12T05:20:43.762Z,986.00
2023-05-12T05:21:39.985Z,987.00
2023-05-12T05:22:40.018Z,989.00
2023-05-12T05:23:40.023Z,972.00
2023-05-12T05:24:40.077Z,968.00
2023-05-12T05:25:40.090Z,987.00
2023-05-12T05:26:40.091Z,935.00
2023-05-12T05:27:40.121Z,1005.00
2023-05-12T05:28:40.228Z,1009.00
2023-05-12T05:29:40.166Z,996.00
2023-05-12T05:30:40.216Z,952.00
2023-05-12T05:31:40.243Z,976.00
2023-05-12T05:32:40.793Z,937.00
2023-05-12T05:33:40.287Z,940.00
2023-05-12T05:34:40.394Z,934.00
2023-05-12T05:35:40.362Z,977.00
2023-05-12T05:36:40.369Z,957.00
2023-05-12T05:37:40.396Z,942.00
2023-05-12T05:38:40.379Z,982.00
2023-05-12T05:39:40.405Z,990.00
2023-05-12T05:40:52.357Z,1005.00
2023-05-12T05:41:41.400Z,1006.00
2023-05-12T05:42:40.372Z,1010.00
2023-05-12T05:43:40.385Z,1017.00
2023-05-12T05:44:40.367Z,1054.00
2023-05-12T05:45:40.357Z,1108.00
2023-05-12T05:46:40.422Z,1142.00
2023-05-12T05:47:40.376Z,1137.00
2023-05-12T05:48:40.338Z,1150.00
2023-05-12T05:49:40.314Z,1173.00
2023-05-12T05:50:40.324Z,1157.00
2023-05-12T05:51:40.375Z,1168.00
2023-05-12T05:52:40.327Z,1190.00
2023-05-12T05:53:40.321Z,1221.00
2023-05-12T05:54:40.378Z,1244.00
2023-05-12T05:55:40.462Z,1272.00
2023-05-12T05:56:40.447Z,1289.00
2023-05-12T05:57:40.498Z,1307.00
2023-05-12T05:58:40.522Z,1327.00
2023-05-12T05:59:40.553Z,1356.00
2023-05-12T06:00:40.567Z,1379.00
2023-05-12T06:01:40.650Z,1391.00
2023-05-12T06:02:40.748Z,1420.00
2023-05-12T06:03:40.715Z,1449.00
2023-05-12T06:04:40.649Z,1464.00
2023-05-12T06:05:40.686Z,1478.00
2023-05-12T06:06:40.710Z,1470.00
2023-05-12T06:07:40.738Z,1510.00
2023-05-12T06:08:40.783Z,1518.00
2023-05-12T06:09:40.838Z,1563.00
2023-05-12T06:10:40.929Z,1571.00
2023-05-12T06:11:40.965Z,1578.00
2023-05-12T06:12:41.244Z,1566.00
2023-05-12T06:13:41.074Z,1565.00
2023-05-12T06:14:41.136Z,1571.00
2023-05-12T06:15:41.194Z,1592.00
2023-05-12T06:16:41.272Z,1613.00
2023-05-12T06:17:41.347Z,1647.00
2023-05-12T06:18:41.406Z,1638.00
2023-05-12T06:19:41.411Z,1630.00
2023-05-12T06:20:41.464Z,1628.00
2023-05-12T06:21:41.520Z,1647.00
2023-05-12T06:22:41.570Z,1658.00
2023-05-12T06:23:41.613Z,1674.00
2023-05-12T06:24:41.662Z,1726.00
2023-05-12T06:25:41.689Z,1746.00
2023-05-12T06:26:41.754Z,1734.00
2023-05-12T06:27:41.772Z,1700.00
2023-05-12T06:28:41.793Z,1681.00
2023-05-12T06:29:41.828Z,1633.00
2023-05-12T06:30:41.888Z,1703.00
2023-05-12T06:31:41.967Z,1729.00
2023-05-12T06:32:42.002Z,1721.00
2023-05-12T06:33:41.998Z,1685.00
2023-05-12T06:34:42.093Z,1769.00
2023-05-12T06:35:42.049Z,1774.00
2023-05-12T06:36:42.080Z,1743.00
2023-05-12T06:37:42.147Z,1670.00
2023-05-12T06:38:42.146Z,1629.00
2023-05-12T06:39:42.179Z,1627.00
2023-05-12T06:40:42.233Z,1634.00
2023-05-12T06:41:42.256Z,1637.00
2023-05-12T06:42:42.311Z,1597.00
2023-05-12T06:43:42.342Z,1523.00
2023-05-12T06:44:42.677Z,1515.00
2023-05-12T06:45:42.444Z,1486.00
2023-05-12T06:46:42.615Z,1484.00
2023-05-12T06:47:42.613Z,1463.00
2023-05-12T06:48:42.641Z,1461.00
2023-05-12T06:49:42.682Z,1436.00
2023-05-12T06:50:42.761Z,1400.00
2023-05-12T06:51:42.794Z,1396.00
2023-05-12T06:52:42.869Z,1371.00
2023-05-12T06:53:42.920Z,1357.00
2023-05-12T06:54:42.973Z,1366.00
2023-05-12T06:55:43.049Z,1380.00
2023-05-12T06:56:43.101Z,1386.00
2023-05-12T06:57:43.168Z,1364.00
2023-05-12T06:58:43.227Z,1332.00
2023-05-12T06:59:43.290Z,1350.00
2023-05-12T07:00:43.358Z,1342.00
2023-05-12T07:01:43.470Z,1310.00
2023-05-12T07:02:43.499Z,1321.00
2023-05-12T07:03:43.528Z,1265.00
2023-05-12T07:04:43.563Z,1256.00
2023-05-12T07:05:43.658Z,1301.00
2023-05-12T07:06:43.812Z,1294.00
2023-05-12T07:07:43.769Z,1279.00
2023-05-12T07:08:43.802Z,1258.00
2023-05-12T07:09:43.841Z,1215.00
2023-05-12T07:10:43.905Z,1187.00
2023-05-12T07:11:43.950Z,1170.00
2023-05-12T07:12:44.023Z,1178.00
2023-05-12T07:13:44.127Z,1241.00
2023-05-12T07:14:44.120Z,1253.00
2023-05-12T07:15:44.196Z,1271.00
2023-05-12T07:16:44.223Z,1243.00
2023-05-12T07:17:44.330Z,1189.00
2023-05-12T07:18:44.342Z,1179.00
2023-05-12T07:19:44.377Z,1199.00
2023-05-12T07:20:44.417Z,1183.00
2023-05-12T07:21:44.508Z,1142.00
2023-05-12T07:22:44.544Z,1116.00
2023-05-12T07:23:44.551Z,1055.00
2023-05-12T07:24:44.637Z,1092.00
2023-05-12T07:25:44.730Z,1092.00
2023-05-12T07:26:44.724Z,1126.00
2023-05-12T07:27:44.752Z,1133.00
2023-05-12T07:28:44.804Z,1126.00
2023-05-12T07:29:44.835Z,1121.00
2023-05-12T07:30:44.885Z,1107.00
2023-05-12T07:31:45.096Z,1088.00
2023-05-12T07:32:45.037Z,1079.00
2023-05-12T07:33:45.032Z,1070.00
2023-05-12T07:34:45.061Z,1032.00
2023-05-12T07:35:45.117Z,987.00
2023-05-12T07:36:45.113Z,1026.00
2023-05-12T07:37:45.198Z,1062.00
2023-05-12T07:38:45.179Z,1073.00
2023-05-12T07:39:45.279Z,1063.00
2023-05-12T07:40:45.214Z,1106.00
2023-05-12T07:41:45.270Z,1149.00
2023-05-12T07:42:45.255Z,1028.00
2023-05-12T07:43:45.286Z,1004.00
2023-05-12T07:44:45.293Z,1013.00
2023-05-12T07:45:45.362Z,935.00
2023-05-12T07:46:45.359Z,973.00
2023-05-12T07:47:45.396Z,989.00
2023-05-12T07:48:45.380Z,1020.00
2023-05-12T07:49:45.382Z,980.00
2023-05-12T07:50:45.425Z,973.00
2023-05-12T07:51:45.415Z,901.00
2023-05-12T07:52:45.441Z,869.00
2023-05-12T07:53:45.470Z,861.00
2023-05-12T07:54:45.580Z,861.00
2023-05-12T07:55:45.477Z,856.00
2023-05-12T07:56:45.514Z,859.00
2023-05-12T07:57:45.544Z,872.00
2023-05-12T07:58:47.452Z,904.00
2023-05-12T07:59:45.603Z,884.00
2023-05-12T08:00:45.610Z,853.00
2023-05-12T08:01:45.700Z,785.00
2023-05-12T08:02:45.776Z,776.00
2023-05-12T08:03:45.937Z,807.00
2023-05-12T08:04:45.735Z,824.00
2023-05-12T08:05:45.746Z,808.00
2023-05-12T08:06:45.789Z,797.00
2023-05-12T08:07:45.805Z,779.00
2023-05-12T08:08:45.848Z,757.00
2023-05-12T08:09:45.876Z,770.00
2023-05-12T08:10:45.975Z,791.00
2023-05-12T08:11:48.039Z,750.00
2023-05-12T08:12:46.013Z,751.00
2023-05-12T08:13:45.982Z,752.00
2023-05-12T08:14:45.949Z,761.00
2023-05-12T08:15:45.950Z,778.00
2023-05-12T08:16:45.997Z,796.00
2023-05-12T08:17:46.015Z,786.00
2023-05-12T08:18:45.953Z,802.00
2023-05-12T08:19:45.906Z,827.00
2023-05-12T08:20:45.904Z,838.00
2023-05-12T08:21:45.885Z,839.00
2023-05-12T08:22:45.876Z,856.00
2023-05-12T08:23:45.880Z,911.00
2023-05-12T08:24:45.889Z,925.00
2023-05-12T08:25:45.899Z,868.00
2023-05-12T08:26:46.014Z,898.00
2023-05-12T08:27:45.872Z,897.00
2023-05-12T08:28:45.850Z,906.00
2023-05-12T08:29:45.867Z,896.00
2023-05-12T08:30:46.825Z,784.00
2023-05-12T08:31:45.822Z,740.00
2023-05-12T08:32:45.885Z,682.00
2023-05-12T08:33:47.183Z,708.00
2023-05-12T08:34:45.808Z,708.00
2023-05-12T08:35:45.795Z,649.00
2023-05-12T08:36:45.781Z,642.00
2023-05-12T08:37:45.781Z,642.00
2023-05-12T08:38:45.792Z,618.00
2023-05-12T08:39:45.754Z,616.00
2023-05-12T08:40:45.750Z,601.00
2023-05-12T08:41:45.744Z,600.00
2023-05-12T08:42:45.888Z,573.00
2023-05-12T08:43:45.734Z,530.00
2023-05-12T08:44:45.732Z,555.00
2023-05-12T08:45:45.726Z,552.00
2023-05-12T08:46:45.751Z,580.00
2023-05-12T08:47:45.781Z,580.00
2023-05-12T08:48:45.853Z,589.00
2023-05-12T08:49:45.694Z,592.00
2023-05-12T08:50:45.669Z,579.00
2023-05-12T08:51:51.972Z,586.00
2023-05-12T08:52:46.682Z,586.00
2023-05-12T08:53:45.815Z,574.00
2023-05-12T08:54:55.532Z,578.00
2023-05-12T08:55:54.397Z,579.00
2023-05-12T08:57:45.801Z,587.00
2023-05-12T08:58:45.651Z,581.00
2023-05-12T08:59:45.625Z,558.00
2023-05-12T09:00:45.632Z,560.00
2023-05-12T09:01:45.629Z,582.00
2023-05-12T09:02:52.831Z,581.00
2023-05-12T09:03:46.598Z,582.00
2023-05-12T09:04:45.623Z,587.00
2023-05-12T09:05:45.587Z,594.00
2023-05-12T09:06:45.575Z,598.00
2023-05-12T09:07:45.562Z,607.00
2023-05-12T09:08:45.553Z,606.00
2023-05-12T09:09:45.540Z,616.00
2023-05-12T09:10:45.522Z,629.00
2023-05-12T09:11:45.555Z,641.00
2023-05-12T09:12:45.552Z,660.00
2023-05-12T09:13:45.514Z,640.00
2023-05-12T09:14:45.551Z,629.00
2023-05-12T09:15:45.504Z,605.00
2023-05-12T09:16:45.524Z,594.00
2023-05-12T09:17:45.556Z,584.00
2023-05-12T09:18:45.634Z,560.00
2023-05-12T09:19:45.617Z,581.00
2023-05-12T09:20:46.323Z,566.00
2023-05-12T09:21:45.719Z,555.00
2023-05-12T09:22:45.765Z,574.00
2023-05-12T09:23:45.789Z,577.00
2023-05-12T09:24:45.827Z,570.00
2023-05-12T09:25:45.877Z,556.00
2023-05-12T09:26:45.989Z,571.00
2023-05-12T09:27:45.961Z,565.00
2023-05-12T09:28:46.020Z,585.00
2023-05-12T09:29:58.092Z,596.00
2023-05-12T09:30:47.198Z,597.00
2023-05-12T09:31:46.085Z,602.00
2023-05-12T09:32:46.047Z,599.00
2023-05-12T09:33:46.020Z,576.00
2023-05-12T09:34:46.012Z,595.00
2023-05-12T09:35:46.004Z,626.00
2023-05-12T09:36:46.002Z,666.00
2023-05-12T09:37:45.974Z,749.00
2023-05-12T09:38:46.039Z,855.00
2023-05-12T09:39:45.975Z,879.00
2023-05-12T09:40:45.962Z,863.00
2023-05-12T09:41:45.965Z,719.00
2023-05-12T09:42:45.957Z,706.00
2023-05-12T09:43:45.962Z,766.00
2023-05-12T09:44:45.951Z,779.00
2023-05-12T09:45:46.109Z,834.00
2023-05-12T09:46:46.010Z,881.00
2023-05-12T09:47:46.030Z,948.00
2023-05-12T09:48:46.052Z,974.00
2023-05-12T09:49:46.088Z,1008.00
2023-05-12T09:50:47.935Z,1017.00
2023-05-12T09:51:46.151Z,959.00
2023-05-12T09:52:46.157Z,1017.00
2023-05-12T09:53:46.193Z,1014.00
2023-05-12T09:54:46.230Z,1018.00
2023-05-12T09:55:46.299Z,1012.00
2023-05-12T09:56:46.266Z,1072.00
2023-05-12T09:57:46.285Z,1021.00
2023-05-12T09:58:46.309Z,991.00
2023-05-12T09:59:46.308Z,1031.00
2023-05-12T10:01:06.126Z,1073.00
2023-05-12T10:01:47.408Z,1075.00
2023-05-12T10:02:46.323Z,1080.00
2023-05-12T10:03:46.354Z,1061.00
2023-05-12T10:04:46.392Z,1093.00
2023-05-12T10:05:46.299Z,1157.00
2023-05-12T10:06:46.280Z,1195.00
2023-05-12T10:07:46.306Z,1200.00
2023-05-12T10:08:46.269Z,1211.00
2023-05-12T10:09:46.284Z,1223.00
2023-05-12T10:10:46.273Z,1232.00
2023-05-12T10:11:46.248Z,1277.00
2023-05-12T10:12:46.289Z,1269.00
2023-05-12T10:13:46.261Z,1272.00
2023-05-12T10:14:46.317Z,1258.00
2023-05-12T10:15:46.266Z,1253.00
2023-05-12T10:16:46.253Z,1260.00
2023-05-12T10:17:46.298Z,1298.00
2023-05-12T10:18:46.326Z,1295.00
2023-05-12T10:19:46.193Z,1291.00
2023-05-12T10:20:46.195Z,1345.00
2023-05-12T10:21:46.225Z,1353.00
2023-05-12T10:22:46.211Z,1319.00
2023-05-12T10:23:46.199Z,1376.00
2023-05-12T10:24:46.162Z,1411.00
2023-05-12T10:25:46.197Z,1366.00
2023-05-12T10:26:46.186Z,1403.00
2023-05-12T10:27:46.145Z,1373.00
2023-05-12T10:28:46.141Z,1343.00
2023-05-12T10:29:46.350Z,1266.00
2023-05-12T10:30:46.106Z,1268.00
2023-05-12T10:31:46.217Z,1052.00
2023-05-12T10:32:46.125Z,1058.00
2023-05-12T10:33:46.101Z,921.00
2023-05-12T10:34:46.098Z,934.00
2023-05-12T10:35:48.552Z,929.00
2023-05-12T10:36:46.079Z,929.00
2023-05-12T10:37:46.073Z,906.00
2023-05-12T10:38:46.060Z,876.00
2023-05-12T10:39:46.082Z,877.00
2023-05-12T10:40:46.044Z,876.00
2023-05-12T10:41:46.042Z,833.00
2023-05-12T10:42:46.033Z,882.00
2023-05-12T10:43:46.049Z,910.00
2023-05-12T10:44:46.015Z,904.00
2023-05-12T10:45:46.018Z,888.00
2023-05-12T10:46:46.063Z,837.00
2023-05-12T10:47:46.042Z,828.00
2023-05-12T10:48:46.015Z,842.00
2023-05-12T10:49:45.997Z,894.00
2023-05-12T10:50:45.972Z,900.00
2023-05-12T10:51:45.982Z,836.00
2023-05-12T10:52:45.960Z,858.00
2023-05-12T10:53:50.160Z,938.00
2023-05-12T10:54:46.964Z,938.00
2023-05-12T10:55:46.364Z,921.00
2023-05-12T10:56:46.380Z,960.00
2023-05-12T10:57:46.346Z,955.00
2023-05-12T10:58:46.083Z,920.00
2023-05-12T10:59:46.123Z,840.00
2023-05-12T11:00:46.670Z,850.00
2023-05-12T11:01:46.513Z,819.00
2023-05-12T11:02:47.095Z,766.00
2023-05-12T11:03:46.156Z,746.00
2023-05-12T11:04:46.045Z,742.00
2023-05-12T11:05:46.106Z,734.00
2023-05-12T11:06:46.976Z,792.00
2023-05-12T11:07:45.975Z,794.00
2023-05-12T11:08:46.091Z,829.00
2023-05-12T11:09:56.035Z,785.00
2023-05-12T11:10:47.198Z,786.00
2023-05-12T11:11:45.924Z,752.00
2023-05-12T11:12:45.821Z,746.00
2023-05-12T11:13:45.801Z,721.00
2023-05-12T11:14:45.796Z,686.00
2023-05-12T11:15:45.798Z,693.00
2023-05-12T11:16:45.880Z,724.00
2023-05-12T11:17:46.037Z,754.00
2023-05-12T11:18:45.777Z,828.00
2023-05-12T11:19:45.773Z,927.00
2023-05-12T11:20:45.776Z,979.00
2023-05-12T11:21:45.747Z,972.00
2023-05-12T11:22:45.742Z,1012.00
2023-05-12T11:23:45.733Z,1041.00
2023-05-12T11:24:45.721Z,1060.00
2023-05-12T11:25:45.772Z,1101.00
2023-05-12T11:26:45.712Z,1089.00
2023-05-12T11:27:45.708Z,1105.00
2023-05-12T11:28:45.706Z,1108.00
2023-05-12T11:29:45.799Z,1087.00
2023-05-12T11:30:45.683Z,1079.00
2023-05-12T11:31:45.704Z,1067.00
2023-05-12T11:32:45.717Z,1079.00
2023-05-12T11:33:45.663Z,1076.00
2023-05-12T11:34:45.665Z,1068.00
2023-05-12T11:35:45.651Z,1062.00
2023-05-12T11:36:45.644Z,1084.00
2023-05-12T11:37:45.633Z,1130.00
2023-05-12T11:38:45.627Z,1140.00
2023-05-12T11:39:45.652Z,1192.00
2023-05-12T11:40:45.622Z,1191.00
2023-05-12T11:41:45.607Z,1188.00
2023-05-12T11:42:45.606Z,1183.00
2023-05-12T11:43:45.605Z,1187.00
2023-05-12T11:44:45.594Z,1208.00
2023-05-12T11:45:45.617Z,1229.00
2023-05-12T11:46:45.579Z,1240.00
2023-05-12T11:47:45.608Z,1229.00
2023-05-12T11:48:45.564Z,1215.00
2023-05-12T11:49:45.559Z,1229.00
2023-05-12T11:50:45.558Z,1222.00
2023-05-12T11:51:45.551Z,1227.00
2023-05-12T11:52:45.559Z,1244.00
2023-05-12T11:53:45.586Z,1256.00
2023-05-12T11:54:45.577Z,1251.00
2023-05-12T11:55:45.594Z,1260.00
2023-05-12T11:56:45.599Z,1237.00
2023-05-12T11:57:45.627Z,1235.00
2023-05-12T11:58:45.627Z,1210.00
2023-05-12T11:59:45.639Z,1207.00
2023-05-12T12:00:45.664Z,1188.00
2023-05-12T12:01:45.672Z,1204.00
2023-05-12T12:02:45.766Z,1218.00
2023-05-12T12:03:45.731Z,1229.00
2023-05-12T12:04:45.743Z,1215.00
2023-05-12T12:05:45.777Z,1213.00
2023-05-12T12:06:45.757Z,1213.00
2023-05-12T12:07:45.788Z,1252.00
2023-05-12T12:08:45.812Z,1224.00
2023-05-12T12:09:45.912Z,1220.00
2023-05-12T12:10:45.858Z,1206.00
2023-05-12T12:11:45.863Z,1214.00
2023-05-12T12:12:45.925Z,1206.00
2023-05-12T12:13:45.922Z,1238.00
2023-05-12T12:14:45.963Z,1245.00